• Join FlightAware (Why Join?)
  • Login
  • US Flag 
12:03AM EST


 

Airport Tracker/Info


-or-


 

Live Flight TrackerFlight Track Log ✈ SWA318 ✈ 15-Apr-2013 ✈ KLAS - KPHX

Flight Track Log - Related Links

Times and Time Zones

All times are in EDT time to prevent confusion due to time zone crossing. See the SWA318 flight status page for this flight to view local times or setup timezone preferences in your user account.

Time Position Orientation Groundspeed Altitude Reporting Facility
EDT Latitude Longitude Course Direction KTS MPH feet Rate Location/Type
10:57AM 36.0719 -115.2386 83° East 245 282 5,500  Level Los Angeles Center
10:58AM 36.0028 -115.2881 210° Southwest 286 329 7,000 2,040 Climbing Los Angeles Center
10:59AM 35.9203 -115.2803 176° South 284 327 9,900 2,400 Climbing Los Angeles Center
11:00AM 35.8567 -115.2217 143° Southeast 356 410 12,000 2,700 Climbing Los Angeles Center
11:01AM 35.8258 -115.0878 106° East 374 430 15,600 3,180 Climbing Los Angeles Center
11:02AM 35.8357 -114.7517 83° East  Level FlightAware Approximate
11:02AM 35.8311 -114.9453 87° East 420 483 19,000  Level Los Angeles Center
11:03AM 35.8428 -114.7942 85° East 439 505 21,800 2,760 Climbing Los Angeles Center
11:04AM 35.8531 -114.6086 86° East 455 524 24,800 3,000 Climbing Los Angeles Center
11:05AM 35.7939 -114.4717 118° Southeast 447 514 28,000 1,980 Climbing Los Angeles Center
11:06AM 35.7247 -114.3447 124° Southeast 446 513 29,000 480 Climbing Los Angeles Center
11:07AM 35.6617 -114.2225 122° Southeast 456 525 29,000  Level Los Angeles Center
11:08AM 35.5886 -114.0869 124° Southeast 472 543 29,000  Level Los Angeles Center
11:09AM 35.4992 -113.9244 124° Southeast 480 552 29,000  Level Los Angeles Center
11:10AM 35.4272 -113.7917 124° Southeast 475 547 29,000  Level Los Angeles Center
11:11AM 35.3553 -113.6592 124° Southeast 471 542 29,000  Level Los Angeles Center
11:12AM 35.2828 -113.5275 124° Southeast 470 541 29,000  Level Los Angeles Center
11:13AM 35.1956 -113.3692 124° Southeast 474 545 29,000  Level Los Angeles Center
11:14AM 35.1236 -113.2386 124° Southeast 470 541 29,000  Level Los Angeles Center
11:15AM 35.0544 -113.1094 123° Southeast 463 533 29,000 -480 Level Los Angeles Center
11:16AM 34.9981 -113.0106 125° Southeast 456 525 28,100 -1,140 Descending Albuquerque Center
11:17AM 34.9175 -112.8642 124° Southeast 443 510 26,900 -1,080 Descending Albuquerque Center
11:18AM 34.8514 -112.7456 124° Southeast 432 497 25,900 -1,020 Descending Albuquerque Center
11:19AM 34.7853 -112.6283 124° Southeast 425 489 24,900 -960 Descending Albuquerque Center
11:20AM 34.7208 -112.5131 124° Southeast 419 482 24,000 -960 Descending Albuquerque Center
11:21AM 34.6447 -112.4228 136° Southeast 397 457 23,000 -1,560 Descending Albuquerque Center
11:23AM 34.5478 -112.3311 142° Southeast 379 436 20,800 -1,860 Descending Albuquerque Center
11:24AM 34.4672 -112.2514 141° Southeast 375 432 19,200 -1,680 Descending Albuquerque Center
11:25AM 34.3781 -112.2119 160° South 355 409 17,400 -1,620 Descending Albuquerque Center
11:26AM 34.2894 -112.1889 168° South 334 384 15,900 -1,440 Descending Albuquerque Center
11:27AM 34.2022 -112.1661 168° South 326 375 14,400 -1,440 Descending Albuquerque Center
11:28AM 34.1000 -112.1397 168° South 316 364 13,000 -1,200 Descending Albuquerque Center
11:29AM 34.0172 -112.1178 168° South 308 354 12,000 -1,200 Descending Albuquerque Center
11:30AM 33.9361 -112.0981 169° South 301 346 10,600 -1,020 Descending Albuquerque Center
11:31AM 33.8583 -112.0778 168° South 291 335 10,000 -300 Descending Albuquerque Center
11:32AM 33.7664 -112.0547 168° South 285 328 10,000  Level Albuquerque Center
11:33AM 33.6886 -112.0408 172° South 284 327 10,000  Level Albuquerque Center
11:34AM 33.6072 -112.0267 172° South 283 326 10,000 -120 Level Albuquerque Center
11:35AM 33.5297 -112.0114 171° South 285 328 9,800 -360 Descending Albuquerque Center
11:36AM 33.4617 -112.0039 175° South 247 284 9,300 -1,020 Descending Albuquerque Center
11:37AM 33.4022 -111.9969 174° South 232 267 7,700 -1,140 Descending Albuquerque Center
11:38AM 33.3378 -111.9728 163° South 231 266 7,000 -480 Descending Albuquerque Center
11:39AM 33.3406 -111.8981 87° East 227 261 6,800 -540 Descending Albuquerque Center
11:40AM 33.3428 -111.8258 88° East 220 253 6,000 -420 Descending Albuquerque Center
11:41AM 33.3614 -111.7628 71° East 230 265 6,000 -540 Level Albuquerque Center
11:42AM 33.4136 -111.7789 346° North 202 232 5,000 -1,200 Descending Albuquerque Center
11:43AM 33.4297 -111.8433 287° West 167 192 3,600 -1,080 Descending Albuquerque Center
11:44AM 33.4286 -111.8944 269° West 156 180 2,800 -780 Descending Albuquerque Center
11:45AM 33.4292 -111.9444 271° West 145 167 2,000 -780 Descending Albuquerque Center
11:46AM 33.4286 -111.9942 269° West 139 160 1,200 -780 Descending Albuquerque Center